Terminal Aerodrome Forecast
Issued by NWS

Home | Current Version | Previous Version | Text Only | Print | Product List | Glossary Off
Versions: 1 2 3 4 5 6 7 8 9 10 11 12 13 14 15 16 17 18

000
FTUS43 KGRB 131500 AAA
TAFCWA
TAF AMD
KCWA 131557Z 1316/1412 01010KT P6SM SCT009 OVC025
      TEMPO 1316/1318 BKN009
     FM132100 01015KT 4SM -RA BR OVC010
     FM140300 35015G21KT 6SM -RASN OVC007
     FM140500 34020G26KT 4SM -SN BR OVC007=

USA.gov is the U.S. government's official web portal to all federal, state and local government web resources and services.